createdAt,value
2023-02-27T00:01:36.078Z,63.60
2023-02-27T00:03:40.768Z,59.02
2023-02-27T00:05:40.673Z,55.18
2023-02-27T00:08:06.708Z,55.74
2023-02-27T00:10:24.967Z,57.72
2023-02-27T00:12:40.608Z,59.63
2023-02-27T00:14:51.783Z,61.37
2023-02-27T00:17:07.061Z,62.89
2023-02-27T00:19:21.591Z,64.48
2023-02-27T00:21:38.270Z,60.65
2023-02-27T00:23:57.092Z,55.47
2023-02-27T00:26:03.954Z,55.56
2023-02-27T00:28:17.745Z,57.40
2023-02-27T00:30:16.453Z,59.31
2023-02-27T00:32:30.362Z,60.94
2023-02-27T00:34:26.502Z,62.66
2023-02-27T00:36:31.867Z,64.48
2023-02-27T00:38:34.628Z,61.55
2023-02-27T00:40:28.230Z,56.93
2023-02-27T00:42:33.380Z,55.02
2023-02-27T00:44:38.646Z,56.22
2023-02-27T00:47:13.314Z,58.27
2023-02-27T00:49:25.327Z,60.32
2023-02-27T00:51:13.209Z,61.91
2023-02-27T00:53:08.780Z,63.98
2023-02-27T00:55:34.842Z,63.53
2023-02-27T00:57:40.429Z,58.11
2023-02-27T00:59:28.159Z,54.77
2023-02-27T01:01:33.290Z,55.86
2023-02-27T01:03:47.092Z,57.64
2023-02-27T01:05:41.084Z,59.44
2023-02-27T01:07:44.391Z,61.00
2023-02-27T01:09:36.887Z,62.38
2023-02-27T01:11:39.185Z,64.40
2023-02-27T01:13:53.707Z,62.58
2023-02-27T01:15:51.962Z,57.33
2023-02-27T01:17:49.154Z,54.95
2023-02-27T01:19:22.666Z,56.23
2023-02-27T01:21:19.060Z,57.52
2023-02-27T01:23:34.044Z,59.39
2023-02-27T01:25:49.926Z,61.24
2023-02-27T01:27:55.061Z,62.88
2023-02-27T01:30:01.095Z,64.61
2023-02-27T01:32:00.238Z,61.01
2023-02-27T01:34:03.150Z,56.83
2023-02-27T01:36:26.346Z,55.42
2023-02-27T01:38:47.507Z,57.30
2023-02-27T01:40:50.454Z,59.42
2023-02-27T01:43:08.433Z,61.39
2023-02-27T01:45:29.223Z,63.71
2023-02-27T01:47:42.052Z,64.21
2023-02-27T01:49:59.299Z,59.66
2023-02-27T01:52:13.591Z,55.80
2023-02-27T01:54:27.545Z,56.51
2023-02-27T01:56:30.607Z,58.68
2023-02-27T01:58:27.877Z,60.58
2023-02-27T02:00:46.757Z,62.42
2023-02-27T02:02:55.636Z,64.92
2023-02-27T02:05:03.269Z,62.43
2023-02-27T02:07:09.299Z,57.94
2023-02-27T02:09:15.382Z,55.26
2023-02-27T02:11:19.950Z,57.21
2023-02-27T02:13:24.528Z,59.23
2023-02-27T02:15:26.074Z,61.16
2023-02-27T02:17:40.248Z,62.76
2023-02-27T02:19:55.862Z,64.78
2023-02-27T02:22:26.576Z,61.43
2023-02-27T02:25:00.530Z,56.14
2023-02-27T02:27:30.146Z,56.28
2023-02-27T02:29:56.067Z,59.26
2023-02-27T02:32:16.577Z,61.44
2023-02-27T02:34:47.484Z,64.53
2023-02-27T02:37:15.466Z,63.25
2023-02-27T02:39:40.030Z,58.57
2023-02-27T02:42:01.096Z,55.82
2023-02-27T02:44:14.232Z,57.57
2023-02-27T02:46:43.760Z,60.12
2023-02-27T02:48:49.467Z,62.42
2023-02-27T02:51:17.000Z,65.05
2023-02-27T02:53:37.321Z,62.39
2023-02-27T02:56:04.722Z,56.94
2023-02-27T02:58:31.786Z,56.08
2023-02-27T03:01:04.062Z,58.82
2023-02-27T03:03:42.778Z,61.36
2023-02-27T03:06:31.040Z,64.31
2023-02-27T03:09:06.574Z,63.02
2023-02-27T03:11:13.530Z,58.19
2023-02-27T03:13:38.851Z,56.18
2023-02-27T03:16:03.045Z,58.37
2023-02-27T03:18:01.650Z,60.71
2023-02-27T03:20:19.851Z,63.06
2023-02-27T03:22:09.695Z,65.10
2023-02-27T03:24:19.637Z,61.75
2023-02-27T03:26:35.528Z,57.37
2023-02-27T03:28:51.972Z,56.19
2023-02-27T03:31:10.040Z,58.38
2023-02-27T03:33:39.310Z,60.94
2023-02-27T03:35:48.389Z,63.62
2023-02-27T03:38:09.539Z,64.97
2023-02-27T03:40:50.929Z,60.40
2023-02-27T03:43:17.677Z,56.07
2023-02-27T03:45:50.735Z,57.71
2023-02-27T03:48:07.521Z,60.16
2023-02-27T03:50:29.686Z,63.07
2023-02-27T03:52:55.633Z,64.75
2023-02-27T03:55:24.082Z,60.53
2023-02-27T03:57:49.333Z,55.90
2023-02-27T04:00:04.022Z,57.21
2023-02-27T04:15:02.718Z,56.78
2023-02-27T04:17:24.585Z,59.00
2023-02-27T04:19:57.759Z,61.43
2023-02-27T04:22:36.442Z,64.70
2023-02-27T04:25:15.376Z,61.85
2023-02-27T04:27:35.284Z,56.76
2023-02-27T04:30:02.181Z,56.54
2023-02-27T04:32:31.880Z,59.19
2023-02-27T04:35:13.719Z,61.56
2023-02-27T04:37:54.739Z,64.94
2023-02-27T04:40:24.642Z,62.53
2023-02-27T04:42:21.289Z,58.29
2023-02-27T04:44:46.709Z,56.11
2023-02-27T04:47:13.539Z,58.23
2023-02-27T04:49:31.032Z,60.68
2023-02-27T04:51:54.647Z,63.96
2023-02-27T04:54:22.387Z,64.29
2023-02-27T04:56:35.330Z,59.92
2023-02-27T04:58:59.682Z,55.57
2023-02-27T05:01:23.066Z,56.82
2023-02-27T05:03:32.692Z,59.32
2023-02-27T05:05:58.133Z,62.03
2023-02-27T05:08:09.144Z,64.62
2023-02-27T05:10:44.857Z,61.95
2023-02-27T05:13:22.481Z,56.61
2023-02-27T05:15:46.734Z,56.32
2023-02-27T05:18:13.875Z,59.26
2023-02-27T05:20:32.700Z,61.57
2023-02-27T05:23:13.576Z,64.14
2023-02-27T05:25:32.643Z,63.38
2023-02-27T05:27:59.351Z,58.76
2023-02-27T05:30:35.573Z,55.69
2023-02-27T05:32:55.732Z,58.21
2023-02-27T05:35:36.487Z,60.74
2023-02-27T05:37:46.085Z,63.52
2023-02-27T05:40:12.783Z,63.99
2023-02-27T05:42:38.310Z,59.62
2023-02-27T05:44:54.911Z,55.58
2023-02-27T05:47:21.080Z,57.28
2023-02-27T05:49:47.743Z,59.75
2023-02-27T05:52:03.747Z,62.14
2023-02-27T05:54:34.913Z,65.19
2023-02-27T05:56:51.608Z,62.17
2023-02-27T05:59:22.299Z,57.51
2023-02-27T06:01:33.005Z,56.42
2023-02-27T06:03:58.895Z,58.97
2023-02-27T06:06:15.409Z,61.66
2023-02-27T06:08:32.376Z,64.41
2023-02-27T06:10:59.452Z,62.95
2023-02-27T06:13:13.710Z,58.05
2023-02-27T06:15:32.556Z,56.00
2023-02-27T06:17:59.594Z,58.41
2023-02-27T06:20:26.358Z,61.28
2023-02-27T06:22:39.642Z,64.01
2023-02-27T06:24:59.118Z,63.22
2023-02-27T06:27:21.758Z,58.23
2023-02-27T06:29:47.999Z,55.63
2023-02-27T06:32:15.780Z,58.16
2023-02-27T06:34:32.625Z,60.54
2023-02-27T06:36:52.168Z,63.04
2023-02-27T06:39:18.299Z,65.15
2023-02-27T06:41:04.634Z,60.96
2023-02-27T06:43:30.927Z,56.93
2023-02-27T06:45:36.510Z,56.50
2023-02-27T06:48:11.716Z,58.47
2023-02-27T06:50:48.477Z,61.06
2023-02-27T06:53:10.409Z,63.89
2023-02-27T06:55:26.443Z,64.19
2023-02-27T06:57:51.260Z,59.31
2023-02-27T07:00:17.317Z,55.82
2023-02-27T07:02:41.189Z,57.63
2023-02-27T07:05:09.336Z,60.67
2023-02-27T07:07:40.937Z,62.41
2023-02-27T07:09:58.694Z,65.14
2023-02-27T07:12:25.660Z,61.87
2023-02-27T07:14:44.391Z,56.88
2023-02-27T07:17:10.988Z,56.43
2023-02-27T07:19:15.863Z,58.82
2023-02-27T07:21:42.409Z,60.72
2023-02-27T07:24:06.615Z,63.31
2023-02-27T07:26:28.933Z,63.81
2023-02-27T07:29:00.713Z,59.58
2023-02-27T07:31:07.431Z,55.68
2023-02-27T07:33:41.672Z,57.23
2023-02-27T07:36:16.565Z,60.28
2023-02-27T07:38:22.322Z,62.37
2023-02-27T07:40:48.443Z,64.61
2023-02-27T07:43:14.949Z,60.93
2023-02-27T07:45:41.689Z,55.93
2023-02-27T07:48:08.128Z,56.39
2023-02-27T07:50:32.634Z,58.78
2023-02-27T07:52:46.716Z,61.10
2023-02-27T07:55:15.371Z,62.89
2023-02-27T07:57:33.526Z,64.84
2023-02-27T07:59:51.477Z,60.96
2023-02-27T08:02:01.283Z,56.58
2023-02-27T08:04:18.427Z,56.61
2023-02-27T08:06:32.729Z,58.39
2023-02-27T08:08:47.321Z,60.08
2023-02-27T08:11:03.824Z,62.38
2023-02-27T08:15:54.284Z,60.30
2023-02-27T08:18:08.920Z,55.50
2023-02-27T08:20:24.595Z,54.71
2023-02-27T08:22:40.854Z,54.90
2023-02-27T08:25:16.103Z,57.30
2023-02-27T08:27:16.056Z,58.89
2023-02-27T08:29:51.045Z,59.42
2023-02-27T08:32:17.119Z,60.41
2023-02-27T08:34:30.157Z,60.94
2023-02-27T08:36:57.403Z,62.46
2023-02-27T08:39:24.171Z,63.84
2023-02-27T08:41:25.340Z,59.10
2023-02-27T08:43:51.753Z,54.56
2023-02-27T08:46:18.911Z,53.74
2023-02-27T08:48:32.531Z,53.93
2023-02-27T08:50:47.233Z,55.87
2023-02-27T08:53:06.701Z,57.05
2023-02-27T08:55:33.410Z,58.19
2023-02-27T08:57:59.280Z,59.71
2023-02-27T09:00:21.890Z,60.18
2023-02-27T09:02:33.727Z,60.51
2023-02-27T09:04:59.334Z,60.28
2023-02-27T09:07:33.953Z,60.85
2023-02-27T09:09:20.673Z,61.22
2023-02-27T09:11:49.086Z,61.39
2023-02-27T09:17:03.710Z,61.73
2023-02-27T09:19:28.113Z,61.07
2023-02-27T09:21:33.105Z,61.43
2023-02-27T09:24:19.159Z,60.37
2023-02-27T09:26:44.295Z,60.16
2023-02-27T09:29:01.820Z,60.19
2023-02-27T09:31:18.230Z,60.76
2023-02-27T09:33:32.405Z,61.24
2023-02-27T09:35:58.706Z,61.08
2023-02-27T09:38:12.736Z,61.31
2023-02-27T09:40:41.045Z,61.24
2023-02-27T09:43:09.987Z,61.39
2023-02-27T09:45:39.151Z,60.35
2023-02-27T09:48:14.222Z,60.11
2023-02-27T09:50:47.327Z,60.31
2023-02-27T09:53:14.383Z,60.18
2023-02-27T09:55:33.549Z,59.88
2023-02-27T09:58:06.732Z,60.01
2023-02-27T10:00:26.621Z,60.25
2023-02-27T10:03:04.071Z,60.49
2023-02-27T10:05:27.615Z,59.95
2023-02-27T10:08:09.516Z,60.34
2023-02-27T10:10:24.981Z,59.68
2023-02-27T10:12:53.458Z,60.02
2023-02-27T10:15:31.059Z,59.56
2023-02-27T10:17:10.778Z,59.34
2023-02-27T10:19:14.518Z,59.90
2023-02-27T10:21:31.154Z,58.90
2023-02-27T10:23:57.189Z,59.28
2023-02-27T10:26:10.053Z,59.18
2023-02-27T10:27:44.105Z,59.63
2023-02-27T10:30:12.945Z,58.35
2023-02-27T10:33:55.884Z,58.52
2023-02-27T10:35:45.783Z,59.16
2023-02-27T10:37:16.382Z,59.81
2023-02-27T10:39:03.751Z,59.07
2023-02-27T10:40:35.334Z,58.19
2023-02-27T10:42:15.842Z,57.66
2023-02-27T10:44:42.680Z,56.97
2023-02-27T10:46:51.351Z,57.31
2023-02-27T10:49:13.558Z,57.01
2023-02-27T10:51:44.545Z,56.84
2023-02-27T10:54:13.882Z,56.07
2023-02-27T10:56:20.625Z,55.99
2023-02-27T10:58:28.783Z,55.59
2023-02-27T11:00:38.932Z,54.81
2023-02-27T11:02:51.542Z,54.81
2023-02-27T11:05:34.768Z,56.29
2023-02-27T11:07:49.104Z,55.45
2023-02-27T11:10:04.668Z,55.36
2023-02-27T11:12:21.186Z,55.44
2023-02-27T11:14:25.225Z,55.21
2023-02-27T11:16:32.477Z,55.80
2023-02-27T11:18:57.849Z,55.43
2023-02-27T11:21:24.223Z,54.59
2023-02-27T11:23:00.653Z,54.54
2023-02-27T11:25:15.179Z,54.51
2023-02-27T11:27:26.256Z,55.64
2023-02-27T11:29:48.093Z,52.97
2023-02-27T11:32:09.825Z,52.68
2023-02-27T11:34:09.461Z,52.59
2023-02-27T11:36:23.894Z,52.67
2023-02-27T11:38:36.665Z,52.36
2023-02-27T11:40:56.207Z,53.75
2023-02-27T11:43:02.247Z,52.98
2023-02-27T11:46:10.350Z,53.09
2023-02-27T11:48:01.305Z,54.12
2023-02-27T11:50:31.400Z,53.55
2023-02-27T11:52:58.313Z,53.93
2023-02-27T11:55:27.902Z,53.99
2023-02-27T11:57:54.535Z,53.33
2023-02-27T12:00:38.706Z,51.29
2023-02-27T12:03:04.837Z,51.56
2023-02-27T12:05:48.168Z,50.63
2023-02-27T12:08:14.380Z,50.19
2023-02-27T12:10:41.842Z,50.28
2023-02-27T12:12:49.350Z,49.33
2023-02-27T12:15:15.348Z,49.77
2023-02-27T12:17:38.471Z,48.81
2023-02-27T12:20:01.277Z,48.69
2023-02-27T12:22:32.004Z,49.13
2023-02-27T12:25:08.228Z,49.71
2023-02-27T12:27:36.422Z,49.87
2023-02-27T12:29:54.361Z,50.49
2023-02-27T12:32:25.394Z,51.61
2023-02-27T12:34:48.245Z,51.94
2023-02-27T12:37:02.733Z,51.77
2023-02-27T12:39:28.596Z,52.24
2023-02-27T12:41:23.244Z,51.68
2023-02-27T12:43:44.257Z,51.14
2023-02-27T12:46:21.303Z,50.88
2023-02-27T12:49:09.099Z,51.03
2023-02-27T12:51:41.586Z,51.65
2023-02-27T12:54:00.190Z,51.97
2023-02-27T12:56:01.940Z,52.28
2023-02-27T12:58:42.788Z,52.59
2023-02-27T13:01:03.342Z,52.84
2023-02-27T13:03:36.232Z,53.30
2023-02-27T13:06:11.540Z,53.81
2023-02-27T13:08:38.819Z,54.12
2023-02-27T13:10:51.264Z,54.34
2023-02-27T13:13:36.808Z,54.60
2023-02-27T13:16:05.903Z,55.42
2023-02-27T13:18:49.533Z,56.05
2023-02-27T13:21:06.649Z,55.51
2023-02-27T13:23:48.146Z,56.41
2023-02-27T13:26:00.241Z,56.27
2023-02-27T13:28:23.821Z,56.11
2023-02-27T13:30:33.133Z,56.32
2023-02-27T13:33:05.139Z,56.15
2023-02-27T13:35:25.815Z,56.63
2023-02-27T13:37:55.190Z,56.24
2023-02-27T13:40:09.420Z,55.93
2023-02-27T13:42:34.018Z,56.55
2023-02-27T13:47:17.266Z,58.16
2023-02-27T13:48:53.707Z,58.57
2023-02-27T13:51:20.215Z,58.28
2023-02-27T13:53:28.043Z,57.50
2023-02-27T13:55:35.328Z,57.42
2023-02-27T13:57:53.831Z,57.31
2023-02-27T14:00:13.254Z,57.24
2023-02-27T14:02:46.600Z,57.16
2023-02-27T14:04:58.967Z,57.70
2023-02-27T14:07:02.399Z,57.52
2023-02-27T14:09:14.346Z,57.82
2023-02-27T14:11:40.045Z,57.02
2023-02-27T14:14:18.493Z,57.12
2023-02-27T14:16:31.371Z,57.16
2023-02-27T14:18:34.262Z,58.22
2023-02-27T14:20:40.653Z,57.87
2023-02-27T14:23:05.029Z,58.10
2023-02-27T14:25:28.865Z,57.90
2023-02-27T14:27:36.869Z,58.46
2023-02-27T14:29:36.268Z,58.59
2023-02-27T14:31:51.048Z,58.98
2023-02-27T14:34:05.693Z,58.67
2023-02-27T14:36:16.244Z,58.82
2023-02-27T14:38:41.067Z,59.22
2023-02-27T14:41:10.463Z,59.43
2023-02-27T14:44:07.062Z,59.72
2023-02-27T14:46:29.447Z,59.13
2023-02-27T14:48:38.171Z,59.33
2023-02-27T14:51:04.150Z,59.05
2023-02-27T14:53:23.952Z,58.97
2023-02-27T14:55:30.116Z,58.87
2023-02-27T14:57:55.885Z,58.96
2023-02-27T15:00:11.465Z,59.10
2023-02-27T15:02:27.927Z,58.93
2023-02-27T15:04:01.416Z,58.69
2023-02-27T15:06:09.664Z,59.35
2023-02-27T15:08:07.623Z,59.15
2023-02-27T15:10:33.108Z,59.41
2023-02-27T15:12:38.675Z,59.54
2023-02-27T15:14:39.534Z,59.28
2023-02-27T15:17:12.346Z,59.32
2023-02-27T15:19:15.523Z,59.48
2023-02-27T15:21:29.671Z,59.44
2023-02-27T15:23:22.679Z,59.11
2023-02-27T15:26:00.427Z,59.10
2023-02-27T15:28:26.454Z,58.88
2023-02-27T15:30:43.689Z,58.64
2023-02-27T15:32:50.728Z,58.80
2023-02-27T15:35:17.493Z,58.66
2023-02-27T15:37:25.148Z,58.79
2023-02-27T15:39:47.149Z,59.42
2023-02-27T15:41:52.631Z,59.29
2023-02-27T15:43:56.938Z,59.04
2023-02-27T15:46:11.694Z,59.09
2023-02-27T15:48:37.874Z,59.59
2023-02-27T15:51:01.489Z,59.78
2023-02-27T15:53:35.653Z,59.84
2023-02-27T15:55:42.239Z,59.33
2023-02-27T15:58:16.660Z,59.21
2023-02-27T16:00:21.254Z,59.76
2023-02-27T16:02:37.317Z,59.55
2023-02-27T16:05:06.053Z,60.46
2023-02-27T16:07:18.867Z,61.13
2023-02-27T16:09:20.680Z,60.68
2023-02-27T16:11:49.491Z,60.05
2023-02-27T16:14:40.217Z,60.13
2023-02-27T16:17:03.528Z,60.07
2023-02-27T16:19:38.694Z,60.31
2023-02-27T16:22:08.021Z,59.98
2023-02-27T16:24:51.008Z,60.10
2023-02-27T16:27:17.184Z,60.25
2023-02-27T16:29:28.341Z,60.26
2023-02-27T16:31:57.084Z,60.57
2023-02-27T16:34:42.687Z,60.32
2023-02-27T16:36:57.518Z,60.64
2023-02-27T16:39:11.638Z,60.61
2023-02-27T16:41:27.809Z,60.89
2023-02-27T16:43:51.393Z,61.27
2023-02-27T16:46:08.641Z,61.11
2023-02-27T16:48:32.407Z,61.42
2023-02-27T16:50:53.277Z,61.57
2023-02-27T16:52:59.609Z,61.42
2023-02-27T16:54:31.863Z,61.41
2023-02-27T16:56:55.641Z,61.81
2023-02-27T16:58:59.581Z,61.99
2023-02-27T17:01:14.116Z,61.32
2023-02-27T17:02:51.680Z,61.22
2023-02-27T17:05:10.099Z,61.86
2023-02-27T17:07:25.113Z,63.91
2023-02-27T17:09:51.364Z,60.15
2023-02-27T17:12:20.159Z,53.86
2023-02-27T17:14:32.264Z,52.19
2023-02-27T17:16:47.677Z,53.52
2023-02-27T17:19:04.611Z,55.58
2023-02-27T17:20:52.332Z,56.23
2023-02-27T17:23:18.573Z,56.15
2023-02-27T17:25:44.125Z,56.89
2023-02-27T17:27:58.800Z,58.58
2023-02-27T17:30:34.700Z,58.80
2023-02-27T17:32:33.817Z,59.13
2023-02-27T17:35:08.697Z,60.35
2023-02-27T17:37:41.691Z,60.12
2023-02-27T17:39:57.457Z,61.85
2023-02-27T17:42:19.328Z,61.82
2023-02-27T17:44:32.906Z,62.19
2023-02-27T17:46:25.324Z,61.91
2023-02-27T17:48:40.983Z,62.28
2023-02-27T17:51:04.604Z,62.97
2023-02-27T17:53:16.721Z,58.34
2023-02-27T17:55:22.177Z,53.65
2023-02-27T17:57:19.035Z,53.02
2023-02-27T17:59:04.256Z,54.05
2023-02-27T18:01:37.311Z,55.47
2023-02-27T18:03:46.632Z,56.29
2023-02-27T18:06:02.514Z,56.64
2023-02-27T18:08:20.652Z,57.71
2023-02-27T18:10:06.148Z,57.67
2023-02-27T18:12:32.466Z,58.49
2023-02-27T18:14:47.718Z,58.88
2023-02-27T18:17:02.545Z,58.90
2023-02-27T18:19:18.292Z,58.97
2023-02-27T18:21:35.324Z,59.59
2023-02-27T18:23:51.545Z,60.27
2023-02-27T18:26:06.406Z,60.90
2023-02-27T18:28:17.440Z,61.35
2023-02-27T18:30:00.705Z,60.93
2023-02-27T18:31:40.746Z,61.31
2023-02-27T18:33:42.616Z,61.86
2023-02-27T18:35:22.774Z,61.26
2023-02-27T18:37:25.751Z,61.45
2023-02-27T18:39:32.163Z,62.45
2023-02-27T18:41:31.683Z,63.55
2023-02-27T18:43:20.010Z,60.36
2023-02-27T18:45:17.008Z,55.16
2023-02-27T18:47:07.336Z,52.75
2023-02-27T18:49:12.521Z,52.81
2023-02-27T18:51:12.162Z,54.04
2023-02-27T18:53:32.669Z,55.34
2023-02-27T18:55:37.156Z,55.54
2023-02-27T18:58:01.761Z,56.35
2023-02-27T19:00:10.880Z,57.46
2023-02-27T19:02:37.927Z,57.99
2023-02-27T19:05:06.136Z,58.34
2023-02-27T19:07:09.573Z,58.62
2023-02-27T19:09:32.876Z,59.04
2023-02-27T19:11:32.929Z,59.71
2023-02-27T19:13:09.450Z,59.37
2023-02-27T19:15:15.235Z,59.89
2023-02-27T19:17:03.851Z,60.42
2023-02-27T19:19:12.348Z,60.52
2023-02-27T19:21:16.909Z,61.03
2023-02-27T19:23:38.984Z,61.25
2023-02-27T19:25:53.704Z,61.70
2023-02-27T19:28:10.412Z,61.36
2023-02-27T19:30:14.535Z,61.47
2023-02-27T19:32:24.206Z,61.81
2023-02-27T19:34:21.069Z,61.57
2023-02-27T19:36:37.757Z,61.65
2023-02-27T19:38:42.526Z,61.98
2023-02-27T19:40:55.212Z,61.48
2023-02-27T19:43:09.934Z,61.61
2023-02-27T19:44:56.039Z,61.47
2023-02-27T19:47:03.264Z,62.10
2023-02-27T19:49:18.102Z,61.78
2023-02-27T19:51:10.786Z,61.81
2023-02-27T19:53:37.262Z,61.81
2023-02-27T19:55:43.548Z,61.64
2023-02-27T19:57:48.325Z,62.20
2023-02-27T20:00:01.034Z,62.01
2023-02-27T20:02:03.000Z,62.06
2023-02-27T20:03:56.055Z,63.28
2023-02-27T20:06:11.470Z,62.75
2023-02-27T20:08:28.489Z,57.12
2023-02-27T20:10:39.437Z,53.46
2023-02-27T20:12:24.520Z,53.41
2023-02-27T20:14:02.864Z,54.56
2023-02-27T20:16:17.267Z,55.77
2023-02-27T20:18:32.705Z,57.07
2023-02-27T20:20:45.329Z,57.65
2023-02-27T20:25:00.046Z,59.69
2023-02-27T20:26:45.344Z,60.08
2023-02-27T20:28:32.251Z,60.22
2023-02-27T20:30:40.240Z,60.04
2023-02-27T20:32:53.625Z,60.81
2023-02-27T20:35:19.307Z,61.25
2023-02-27T20:37:35.704Z,62.02
2023-02-27T20:39:51.310Z,62.12
2023-02-27T20:41:55.418Z,64.08
2023-02-27T20:44:10.974Z,61.70
2023-02-27T20:46:07.389Z,54.66
2023-02-27T20:48:33.377Z,52.91
2023-02-27T20:50:36.111Z,53.98
2023-02-27T20:53:02.270Z,55.60
2023-02-27T20:54:51.145Z,56.80
2023-02-27T20:56:43.276Z,57.84
2023-02-27T20:58:05.598Z,58.52
2023-02-27T21:00:32.005Z,58.99
2023-02-27T21:02:37.107Z,59.78
2023-02-27T21:05:02.763Z,60.26
2023-02-27T21:07:14.621Z,61.55
2023-02-27T21:09:13.006Z,62.16
2023-02-27T21:11:33.033Z,63.53
2023-02-27T21:13:52.080Z,61.54
2023-02-27T21:16:18.432Z,55.64
2023-02-27T21:18:33.272Z,53.64
2023-02-27T21:20:38.134Z,54.35
2023-02-27T21:25:25.165Z,57.75
2023-02-27T21:27:39.468Z,58.41
2023-02-27T21:30:13.995Z,58.91
2023-02-27T21:32:19.109Z,59.85
2023-02-27T21:34:31.487Z,60.02
2023-02-27T21:36:28.997Z,60.39
2023-02-27T21:38:54.605Z,61.31
2023-02-27T21:41:11.710Z,61.61
2023-02-27T21:43:26.864Z,62.27
2023-02-27T21:45:50.097Z,63.85
2023-02-27T21:48:04.828Z,60.91
2023-02-27T21:50:22.262Z,54.71
2023-02-27T21:52:39.238Z,52.94
2023-02-27T21:55:05.895Z,54.32
2023-02-27T21:57:16.433Z,55.72
2023-02-27T21:59:44.069Z,57.24
2023-02-27T22:01:42.145Z,58.04
2023-02-27T22:04:08.318Z,59.40
2023-02-27T22:06:04.644Z,59.68
2023-02-27T22:08:20.377Z,60.76
2023-02-27T22:10:36.421Z,61.41
2023-02-27T22:12:51.405Z,61.97
2023-02-27T22:15:13.460Z,62.87
2023-02-27T22:17:13.537Z,63.84
2023-02-27T22:19:19.921Z,58.55
2023-02-27T22:21:46.002Z,53.10
2023-02-27T22:24:00.537Z,53.65
2023-02-27T22:26:16.985Z,55.21
2023-02-27T22:28:29.782Z,56.51
2023-02-27T22:30:32.740Z,57.65
2023-02-27T22:32:35.366Z,58.52
2023-02-27T22:35:01.326Z,59.27
2023-02-27T22:37:06.603Z,60.05
2023-02-27T22:39:25.630Z,60.98
2023-02-27T22:41:51.069Z,61.66
2023-02-27T22:44:05.454Z,62.98
2023-02-27T22:46:32.119Z,64.19
2023-02-27T22:49:14.312Z,57.40
2023-02-27T22:51:34.442Z,53.23
2023-02-27T22:53:53.098Z,53.99
2023-02-27T22:56:03.296Z,56.39
2023-02-27T22:58:29.728Z,57.75
2023-02-27T23:00:43.744Z,58.63
2023-02-27T23:03:06.221Z,59.68
2023-02-27T23:05:12.020Z,60.82
2023-02-27T23:07:38.102Z,61.71
2023-02-27T23:09:54.502Z,62.72
2023-02-27T23:12:13.799Z,62.71
2023-02-27T23:14:30.161Z,55.92
2023-02-27T23:16:46.768Z,52.64
2023-02-27T23:18:45.867Z,53.52
2023-02-27T23:21:25.040Z,56.17
2023-02-27T23:23:10.130Z,57.09
2023-02-27T23:25:01.316Z,57.99
2023-02-27T23:26:48.276Z,58.53
2023-02-27T23:28:17.247Z,59.50
2023-02-27T23:29:53.172Z,60.47
2023-02-27T23:31:48.321Z,60.87
2023-02-27T23:33:24.232Z,60.10
2023-02-27T23:35:04.507Z,59.87
2023-02-27T23:36:41.060Z,60.13
2023-02-27T23:38:10.325Z,60.51
2023-02-27T23:39:54.113Z,61.57
2023-02-27T23:41:32.987Z,61.07
2023-02-27T23:43:25.734Z,60.55
2023-02-27T23:45:23.557Z,60.77
2023-02-27T23:47:08.442Z,60.77
2023-02-27T23:49:03.114Z,61.17
2023-02-27T23:50:58.121Z,60.40
2023-02-27T23:52:28.144Z,60.58
2023-02-27T23:54:04.487Z,61.28
2023-02-27T23:55:59.143Z,61.54
2023-02-27T23:57:54.149Z,62.20
2023-02-27T23:59:30.439Z,63.74
